Time;durP1;ratioP1;P1;durP2;ratioP2;P2;SDS_P1;SDS_P2;PMS_P1;PMS_P2;Temp;Humidity;BMP_temperature;BMP_pressure;BME280_temperature;BME280_humidity;BME280_pressure;Samples;Min_cycle;Max_cycle;Signal;HPM_P1;HPM_P2
2022/11/19 00:01:24;;;;;;;1.02;1.02;;;21.10;50.60;;;;;;4981074;28;20131;-64
2022/11/19 00:03:52;;;;;;;1.00;1.00;;;21.10;50.60;;;;;;4981301;28;20061;-65
2022/11/19 00:06:22;;;;;;;0.93;0.93;;;21.10;50.60;;;;;;4981035;28;20051;-64
2022/11/19 00:08:49;;;;;;;0.85;0.85;;;21.10;50.60;;;;;;4980915;28;20054;-65
2022/11/19 00:12:53;;;;;;;1.20;1.10;;;21.10;50.60;;;;;;4981154;28;20067;-64
2022/11/19 00:14:08;;;;;;;1.55;1.30;;;21.00;50.50;;;;;;4980909;28;20106;-65
2022/11/19 00:16:35;;;;;;;1.95;1.40;;;21.10;50.50;;;;;;4980822;28;20062;-64
2022/11/19 00:19:03;;;;;;;0.93;0.88;;;21.10;50.50;;;;;;4981000;28;20057;-64
2022/11/19 00:21:30;;;;;;;1.10;1.10;;;21.10;50.60;;;;;;4980722;28;20053;-64
2022/11/19 00:23:58;;;;;;;1.33;1.23;;;21.00;50.60;;;;;;4963873;28;20053;-65
2022/11/19 00:26:25;;;;;;;1.13;1.13;;;21.00;50.60;;;;;;4980341;28;20051;-64
2022/11/19 00:28:53;;;;;;;1.20;1.10;;;21.00;50.60;;;;;;4980714;28;20051;-65
2022/11/19 00:31:20;;;;;;;1.05;1.05;;;21.00;50.70;;;;;;4981442;28;20059;-65
2022/11/19 00:33:49;;;;;;;1.23;1.10;;;21.00;51.20;;;;;;4980656;28;20061;-65
2022/11/19 00:36:16;;;;;;;1.00;1.00;;;21.00;50.70;;;;;;4964085;28;20408;-65
2022/11/19 00:38:44;;;;;;;1.15;1.05;;;21.00;50.70;;;;;;4980542;28;20409;-65
2022/11/19 00:41:11;;;;;;;1.25;1.15;;;21.00;50.60;;;;;;4980184;28;20133;-64
2022/11/19 00:43:47;;;;;;;1.15;1.00;;;21.00;50.60;;;;;;4963507;28;20050;-65
2022/11/19 00:46:23;;;;;;;1.00;1.00;;;21.00;50.50;;;;;;4964947;28;20421;-65
2022/11/19 00:48:53;;;;;;;0.90;0.90;;;21.00;50.50;;;;;;4980505;28;20424;-65
2022/11/19 00:51:25;;;;;;;1.17;1.17;;;21.00;50.40;;;;;;4980316;28;20062;-65
2022/11/19 00:53:52;;;;;;;0.88;0.88;;;21.00;50.40;;;;;;4980470;28;20060;-65
2022/11/19 00:56:22;;;;;;;1.27;1.17;;;21.00;50.40;;;;;;4980421;28;20080;-65
2022/11/19 00:58:50;;;;;;;1.27;1.13;;;21.00;50.40;;;;;;4979914;28;20061;-65
2022/11/19 01:01:19;;;;;;;1.23;1.13;;;21.00;50.40;;;;;;4979187;28;20556;-65
2022/11/19 01:03:47;;;;;;;1.20;1.10;;;21.00;50.40;;;;;;4980199;28;20054;-65
2022/11/19 01:06:16;;;;;;;1.30;1.10;;;21.00;50.40;;;;;;4962933;28;20490;-64
2022/11/19 01:08:47;;;;;;;1.38;1.17;;;21.00;50.40;;;;;;4963269;28;20062;-65
2022/11/19 01:11:24;;;;;;;0.98;0.98;;;21.00;50.40;;;;;;4980092;28;20053;-64
2022/11/19 01:13:52;;;;;;;1.13;0.98;;;21.00;50.40;;;;;;4962867;28;20082;-65
2022/11/19 01:16:26;;;;;;;0.70;0.70;;;21.00;50.40;;;;;;4979476;28;20066;-64
2022/11/19 01:18:54;;;;;;;1.10;0.90;;;21.00;50.50;;;;;;4980582;28;20055;-64
2022/11/19 01:21:24;;;;;;;0.80;0.80;;;21.00;50.50;;;;;;4962628;28;20057;-64
2022/11/19 01:23:51;;;;;;;1.05;0.80;;;21.00;50.50;;;;;;4946508;28;20042;-64
2022/11/19 01:26:18;;;;;;;1.10;1.10;;;21.00;50.50;;;;;;4962422;28;20059;-64
2022/11/19 01:28:46;;;;;;;1.10;1.00;;;21.00;50.50;;;;;;4979770;28;20042;-64
2022/11/19 01:31:16;;;;;;;2.00;1.13;;;21.00;50.50;;;;;;4979488;28;20061;-61
2022/11/19 01:33:44;;;;;;;;;;;21.00;50.50;;;;;;4980814;28;20429;-64
2022/11/19 01:36:17;;;;;;;1.27;1.17;;;21.00;50.50;;;;;;4979345;28;19929;-64
2022/11/19 01:38:51;;;;;;;1.50;1.40;;;21.00;50.50;;;;;;4979235;28;20131;-64
2022/11/19 01:41:24;;;;;;;1.20;1.10;;;21.00;50.50;;;;;;4963247;28;20053;-64
2022/11/19 01:43:55;;;;;;;1.00;0.90;;;21.00;50.50;;;;;;4979184;28;20055;-64
2022/11/19 01:46:24;;;;;;;1.38;1.27;;;21.00;50.50;;;;;;4979283;28;20401;-64
2022/11/19 01:49:02;;;;;;;0.73;0.73;;;21.00;50.50;;;;;;4980513;28;20047;-64
2022/11/19 01:51:58;;;;;;;0.88;0.88;;;21.00;50.50;;;;;;4978854;28;20055;-64
2022/11/19 01:54:32;;;;;;;1.15;1.05;;;21.00;50.50;;;;;;4965838;28;20419;-64
2022/11/19 01:57:03;;;;;;;1.65;1.05;;;21.00;50.50;;;;;;4979033;28;20049;-61
2022/11/19 01:59:31;;;;;;;1.88;0.90;;;21.00;50.40;;;;;;4961808;28;20051;-64
2022/11/19 02:01:58;;;;;;;0.77;0.65;;;21.00;50.40;;;;;;4978697;28;20050;-64
2022/11/19 02:04:26;;;;;;;0.88;0.88;;;21.00;50.40;;;;;;4979674;28;20231;-65
2022/11/19 02:06:53;;;;;;;1.10;0.90;;;20.90;50.40;;;;;;4978912;28;20061;-64
2022/11/19 02:09:21;;;;;;;0.85;0.85;;;20.90;50.40;;;;;;4978672;28;20051;-64
2022/11/19 02:12:18;;;;;;;1.20;1.00;;;20.90;50.50;;;;;;4978471;28;20416;-64
2022/11/19 02:15:11;;;;;;;0.90;0.85;;;20.90;50.50;;;;;;4978647;28;20051;-65
2022/11/19 02:18:04;;;;;;;1.35;1.25;;;20.90;50.50;;;;;;4963848;28;20046;-64
2022/11/19 02:20:56;;;;;;;1.13;1.02;;;20.90;50.60;;;;;;4979225;28;20046;-64
2022/11/19 02:24:02;;;;;;;0.90;0.85;;;20.90;50.60;;;;;;4978387;28;20050;-64
2022/11/19 02:26:56;;;;;;;0.73;0.73;;;20.90;50.60;;;;;;4978726;28;20130;-64
2022/11/19 02:30:03;;;;;;;0.88;0.82;;;20.90;50.50;;;;;;4978723;28;20049;-65
2022/11/19 02:32:52;;;;;;;1.10;1.00;;;20.90;50.40;;;;;;4967365;28;20490;-64
2022/11/19 02:35:41;;;;;;;1.10;1.00;;;20.90;50.40;;;;;;4978429;28;20138;-64
2022/11/19 02:38:29;;;;;;;0.90;0.90;;;20.90;50.30;;;;;;4978950;28;20054;-64
2022/11/19 02:41:32;;;;;;;1.13;1.00;;;20.90;50.30;;;;;;4978197;28;20531;-65
2022/11/19 02:44:57;;;;;;;1.20;0.90;;;20.90;50.30;;;;;;4978589;28;20057;-65
2022/11/19 02:46:41;;;;;;;1.48;1.27;;;20.90;50.30;;;;;;4978169;28;20508;-64
2022/11/19 02:49:10;;;;;;;1.67;1.52;;;20.90;50.30;;;;;;4978102;28;20059;-64
2022/11/19 02:51:38;;;;;;;1.13;1.00;;;20.90;50.30;;;;;;4978505;28;20053;-64
2022/11/19 02:54:05;;;;;;;1.38;1.15;;;20.90;50.20;;;;;;4978362;28;20081;-64
2022/11/19 02:56:48;;;;;;;1.30;0.90;;;20.90;50.30;;;;;;4978342;28;20050;-64
2022/11/19 03:04:55;;;;;;;1.38;1.10;;;20.90;50.20;;;;;;4977951;28;20050;-65
2022/11/19 03:07:23;;;;;;;0.70;0.70;;;20.90;50.20;;;;;;4960870;28;20129;-65
2022/11/19 03:09:55;;;;;;;0.95;0.82;;;20.90;50.20;;;;;;4978043;28;20051;-64
2022/11/19 03:12:47;;;;;;;1.30;1.20;;;21.00;50.30;;;;;;4977982;28;20489;-65
2022/11/19 03:18:59;;;;;;;1.35;0.90;;;20.90;50.30;;;;;;4967269;28;20061;-64
2022/11/19 03:21:38;;;;;;;0.95;0.90;;;20.90;50.90;;;;;;4977574;28;20050;-64
2022/11/19 03:24:17;;;;;;;0.80;0.80;;;20.90;50.30;;;;;;4980798;28;20058;-64
2022/11/19 03:27:03;;;;;;;0.77;0.77;;;20.90;50.30;;;;;;4981797;28;20057;-64
2022/11/19 03:29:35;;;;;;;1.23;1.13;;;20.90;50.40;;;;;;4982550;28;20051;-64
2022/11/19 03:32:10;;;;;;;0.93;0.93;;;20.90;50.30;;;;;;4981938;28;20061;-64
2022/11/19 03:34:39;;;;;;;1.33;1.00;;;20.90;50.30;;;;;;4981714;28;20058;-64
2022/11/19 03:37:08;;;;;;;1.25;1.15;;;20.90;50.30;;;;;;4981241;28;20069;-64
2022/11/19 03:39:36;;;;;;;1.83;1.30;;;20.90;50.30;;;;;;4964557;28;20054;-64
2022/11/19 03:42:10;;;;;;;0.95;0.95;;;20.90;50.30;;;;;;4964287;28;20057;-65
2022/11/19 03:44:49;;;;;;;1.27;1.17;;;20.90;50.30;;;;;;4982205;28;20481;-64
2022/11/19 03:47:25;;;;;;;0.77;0.77;;;20.90;50.30;;;;;;4964778;28;20441;-64
2022/11/19 03:50:01;;;;;;;1.55;1.10;;;20.90;50.30;;;;;;4981483;28;20043;-64
2022/11/19 03:52:28;;;;;;;0.80;0.80;;;20.90;50.30;;;;;;4981456;28;20505;-65
2022/11/19 03:54:55;;;;;;;1.92;0.70;;;20.90;50.30;;;;;;4981521;28;20129;-65
2022/11/19 03:57:24;;;;;;;0.80;0.80;;;20.90;50.30;;;;;;4981302;28;20544;-65
2022/11/19 03:59:51;;;;;;;1.27;1.15;;;20.90;50.20;;;;;;4965214;28;20059;-65
2022/11/19 04:02:18;;;;;;;1.13;1.02;;;20.80;50.20;;;;;;4981080;28;20059;-65
2022/11/19 04:04:45;;;;;;;1.10;1.10;;;20.90;50.30;;;;;;4981045;28;20051;-65
2022/11/19 04:07:16;;;;;;;0.73;0.73;;;20.80;50.20;;;;;;4981467;28;20065;-65
2022/11/19 04:09:43;;;;;;;0.95;0.77;;;20.90;50.30;;;;;;4981279;28;20078;-65
2022/11/19 04:12:21;;;;;;;1.30;1.20;;;20.80;50.30;;;;;;4981201;28;20059;-64
2022/11/19 04:14:49;;;;;;;1.38;1.25;;;20.80;50.30;;;;;;4963923;28;20050;-64
2022/11/19 04:17:18;;;;;;;1.17;1.08;;;20.90;50.40;;;;;;4981272;28;20058;-65
2022/11/19 04:19:45;;;;;;;1.52;1.23;;;20.80;50.40;;;;;;4981364;28;20051;-64
2022/11/19 04:22:12;;;;;;;0.82;0.82;;;20.80;50.40;;;;;;4981115;28;20047;-65
2022/11/19 04:24:39;;;;;;;1.48;1.10;;;20.80;50.40;;;;;;4981039;28;20053;-65
2022/11/19 04:27:06;;;;;;;0.60;0.60;;;20.80;50.40;;;;;;4980844;28;20387;-65
2022/11/19 04:29:33;;;;;;;1.00;0.90;;;20.80;50.40;;;;;;4981085;28;20047;-65
2022/11/19 04:32:00;;;;;;;0.90;0.90;;;20.80;50.30;;;;;;4980608;28;20059;-65
2022/11/19 04:34:27;;;;;;;0.80;0.80;;;20.90;50.30;;;;;;4980904;28;20126;-65
2022/11/19 04:36:55;;;;;;;1.10;0.98;;;20.80;50.20;;;;;;4963838;28;20058;-65
2022/11/19 04:39:22;;;;;;;0.75;0.75;;;20.80;50.10;;;;;;4947775;28;20085;-65
2022/11/19 04:41:49;;;;;;;1.17;0.90;;;20.80;50.10;;;;;;4980409;28;20540;-65
2022/11/19 04:44:16;;;;;;;1.17;1.08;;;20.80;50.10;;;;;;4963662;28;20046;-65
2022/11/19 04:46:43;;;;;;;0.82;0.82;;;20.90;50.10;;;;;;4980357;28;20055;-65
2022/11/19 04:49:10;;;;;;;0.98;0.88;;;20.90;50.10;;;;;;4981044;28;20054;-61
2022/11/19 04:51:37;;;;;;;0.98;0.88;;;20.90;50.10;;;;;;4980479;28;20060;-65
2022/11/19 04:54:07;;;;;;;1.10;0.98;;;20.90;50.10;;;;;;4980218;28;20047;-65
2022/11/19 04:56:35;;;;;;;1.63;0.98;;;20.90;50.10;;;;;;4980497;28;20051;-65
2022/11/19 04:59:03;;;;;;;0.82;0.82;;;20.90;50.10;;;;;;4963474;28;20054;-65
2022/11/19 05:01:30;;;;;;;1.02;1.00;;;20.80;50.10;;;;;;4963091;28;20074;-65
2022/11/19 05:03:57;;;;;;;0.80;0.73;;;20.80;50.10;;;;;;4980463;28;20065;-65
2022/11/19 05:06:25;;;;;;;1.13;0.90;;;20.90;50.10;;;;;;4979922;28;20057;-65
2022/11/19 05:08:52;;;;;;;1.73;0.85;;;20.80;50.10;;;;;;4980129;28;20050;-64
2022/11/19 05:11:19;;;;;;;1.08;1.00;;;20.80;50.10;;;;;;4979997;28;20050;-65
2022/11/19 05:13:46;;;;;;;1.08;0.93;;;20.80;50.10;;;;;;4980101;28;20535;-65
2022/11/19 05:16:13;;;;;;;0.95;0.95;;;20.80;50.10;;;;;;4980236;28;20046;-65
2022/11/19 05:18:40;;;;;;;1.40;1.17;;;20.80;50.10;;;;;;4963232;28;20046;-65
2022/11/19 05:21:07;;;;;;;0.80;0.80;;;20.90;50.20;;;;;;4979655;28;20047;-65
2022/11/19 05:23:34;;;;;;;1.10;1.10;;;20.80;50.40;;;;;;4979992;28;20050;-64
2022/11/19 05:26:01;;;;;;;1.00;1.00;;;20.90;50.20;;;;;;4962440;28;20051;-65
2022/11/19 05:28:30;;;;;;;0.93;0.90;;;20.80;50.10;;;;;;4979725;28;20047;-64
2022/11/19 05:31:05;;;;;;;1.30;1.20;;;20.80;50.10;;;;;;4979464;28;20082;-65
2022/11/19 05:33:32;;;;;;;1.13;0.90;;;20.80;50.10;;;;;;4980560;28;20051;-65
2022/11/19 05:36:01;;;;;;;1.60;1.50;;;20.80;50.10;;;;;;4979175;28;20055;-65
2022/11/19 05:38:29;;;;;;;1.92;1.33;;;20.80;50.00;;;;;;4979702;28;20051;-65
2022/11/19 05:40:56;;;;;;;1.83;1.70;;;20.80;49.70;;;;;;4979536;28;20058;-65
2022/11/19 05:43:23;;;;;;;2.20;1.90;;;20.80;49.70;;;;;;4980489;28;20385;-65
2022/11/19 05:45:50;;;;;;;2.38;1.67;;;20.80;49.50;;;;;;4978979;28;20084;-65
2022/11/19 05:48:17;;;;;;;1.70;1.58;;;20.80;49.40;;;;;;4979340;28;20050;-65
2022/11/19 05:50:44;;;;;;;1.70;1.60;;;20.80;49.40;;;;;;4979285;28;20053;-65
2022/11/19 05:53:11;;;;;;;2.47;1.95;;;20.70;49.40;;;;;;4961845;28;20050;-65
2022/11/19 05:55:39;;;;;;;1.95;1.75;;;20.70;49.40;;;;;;4979221;28;20608;-64
2022/11/19 05:58:05;;;;;;;2.42;2.10;;;20.70;49.40;;;;;;4979493;28;20057;-65
2022/11/19 06:00:33;;;;;;;2.35;2.15;;;20.70;49.30;;;;;;4962204;28;20054;-65
2022/11/19 06:03:00;;;;;;;2.15;1.92;;;20.80;49.40;;;;;;4978915;28;20126;-65
2022/11/19 06:05:27;;;;;;;2.88;2.40;;;20.70;49.30;;;;;;4979258;28;20409;-65
2022/11/19 06:07:54;;;;;;;2.53;2.25;;;20.70;49.30;;;;;;4979138;28;20059;-65
2022/11/19 06:10:21;;;;;;;4.18;3.00;;;20.70;49.30;;;;;;4978413;28;20047;-65
2022/11/19 06:12:48;;;;;;;3.30;2.40;;;20.70;49.20;;;;;;4961323;28;20062;-65
2022/11/19 06:15:15;;;;;;;2.70;2.47;;;20.70;49.20;;;;;;4978758;28;20055;-65
2022/11/19 06:17:42;;;;;;;3.17;2.60;;;20.70;49.10;;;;;;4979095;28;20062;-64
2022/11/19 06:20:10;;;;;;;3.28;2.90;;;20.70;49.00;;;;;;4978868;28;20083;-64
2022/11/19 06:22:38;;;;;;;4.53;2.92;;;20.60;48.90;;;;;;4979356;28;20047;-63
2022/11/19 06:25:06;;;;;;;3.28;2.97;;;20.70;48.90;;;;;;4978297;28;20477;-65
2022/11/19 06:27:33;;;;;;;3.95;3.15;;;20.60;48.80;;;;;;4978437;28;20131;-65
2022/11/19 06:30:01;;;;;;;4.82;3.55;;;20.70;48.80;;;;;;4961357;28;20053;-65
2022/11/19 06:32:28;;;;;;;4.30;3.30;;;20.70;48.80;;;;;;4978541;28;20051;-65
2022/11/19 06:34:55;;;;;;;3.58;3.00;;;20.60;48.70;;;;;;4978194;28;20051;-65
2022/11/19 06:37:22;;;;;;;4.47;3.58;;;20.70;48.70;;;;;;4978531;28;20055;-65
2022/11/19 06:39:49;;;;;;;4.85;3.70;;;20.70;48.60;;;;;;4961694;28;20050;-64
2022/11/19 06:45:12;;;;;;;5.40;3.83;;;20.70;48.40;;;;;;4978466;28;20404;-65
2022/11/19 06:47:41;;;;;;;5.32;3.95;;;20.70;48.40;;;;;;4978591;28;20408;-65
2022/11/19 06:50:09;;;;;;;5.13;4.10;;;20.70;48.30;;;;;;4961240;28;20400;-65
2022/11/19 06:52:36;;;;;;;6.40;4.65;;;20.70;48.30;;;;;;4961428;28;20055;-65
2022/11/19 06:55:04;;;;;;;4.95;4.20;;;20.70;48.20;;;;;;4978143;28;20046;-65
2022/11/19 06:57:31;;;;;;;4.55;3.70;;;20.70;48.10;;;;;;4977686;28;20148;-65
2022/11/19 06:59:58;;;;;;;5.70;4.63;;;20.70;48.10;;;;;;4960733;28;20047;-65
2022/11/19 07:02:25;;;;;;;4.80;3.92;;;20.70;48.10;;;;;;4961351;28;20134;-64
2022/11/19 07:04:52;;;;;;;6.30;4.55;;;20.70;48.00;;;;;;4960855;28;20046;-65
2022/11/19 07:07:20;;;;;;;5.78;4.30;;;20.70;48.00;;;;;;4978110;28;20489;-65
2022/11/19 07:09:47;;;;;;;6.60;5.68;;;20.70;47.90;;;;;;4977891;28;20493;-65
2022/11/19 07:12:14;;;;;;;5.65;4.47;;;20.70;47.90;;;;;;4960681;28;20137;-65
2022/11/19 07:14:41;;;;;;;5.55;4.30;;;20.70;47.90;;;;;;4960935;28;20061;-65
2022/11/19 07:17:08;;;;;;;6.45;4.57;;;20.70;47.80;;;;;;4977918;28;20049;-64
2022/11/19 07:19:35;;;;;;;7.25;5.15;;;20.70;47.80;;;;;;4945415;28;20061;-64
2022/11/19 07:22:02;;;;;;;6.38;4.93;;;20.70;47.70;;;;;;4977791;28;20046;-65
2022/11/19 07:24:29;;;;;;;5.28;4.70;;;20.70;47.60;;;;;;4978427;28;20436;-65
2022/11/19 07:26:57;;;;;;;6.18;4.70;;;20.80;47.60;;;;;;4977642;28;20061;-65
2022/11/19 07:29:24;;;;;;;6.20;4.80;;;20.70;47.60;;;;;;4978752;28;20058;-65
2022/11/19 07:31:52;;;;;;;7.32;5.25;;;20.70;47.40;;;;;;4977852;28;20416;-65
2022/11/19 07:34:19;;;;;;;6.25;5.13;;;20.80;47.40;;;;;;4977680;28;20055;-65
2022/11/19 07:36:47;;;;;;;7.32;4.75;;;20.80;47.40;;;;;;4977324;28;20055;-65
2022/11/19 07:39:14;;;;;;;6.03;4.68;;;20.80;47.40;;;;;;4977930;28;20401;-65
2022/11/19 07:44:28;;;;;;;7.47;5.30;;;20.80;47.20;;;;;;4977899;28;20106;-66
2022/11/19 07:46:55;;;;;;;6.88;5.05;;;20.80;47.20;;;;;;4977470;28;20065;-65
2022/11/19 07:49:23;;;;;;;7.28;5.05;;;20.80;47.10;;;;;;4977593;28;20043;-65
2022/11/19 07:51:51;;;;;;;7.72;5.45;;;20.80;47.10;;;;;;4977290;28;20054;-65
2022/11/19 07:54:18;;;;;;;5.68;4.78;;;20.80;47.00;;;;;;4977895;28;20057;-65
2022/11/19 07:56:45;;;;;;;6.22;4.82;;;20.80;46.90;;;;;;4977766;28;20127;-65
2022/11/19 07:59:12;;;;;;;10.63;5.70;;;20.90;47.00;;;;;;4977815;28;20071;-64
2022/11/19 08:01:39;;;;;;;7.78;5.18;;;20.90;47.00;;;;;;4977494;28;20134;-65
2022/11/19 08:04:07;;;;;;;7.32;5.57;;;20.80;46.90;;;;;;4961132;28;20378;-65
2022/11/19 08:06:34;;;;;;;7.68;5.05;;;20.90;46.90;;;;;;4977487;28;20414;-65
2022/11/19 08:09:02;;;;;;;5.75;4.63;;;20.90;46.90;;;;;;4978583;28;20050;-64
2022/11/19 08:11:30;;;;;;;6.53;4.90;;;20.90;46.80;;;;;;4980793;28;20058;-64
2022/11/19 08:14:00;;;;;;;8.35;5.68;;;20.90;46.80;;;;;;4981150;28;20057;-65
2022/11/19 08:19:15;;;;;;;7.25;5.15;;;20.90;46.70;;;;;;4981268;28;20409;-64
2022/11/19 08:21:45;;;;;;;5.65;4.80;;;20.90;46.70;;;;;;4981029;28;20054;-64
2022/11/19 08:24:17;;;;;;;8.38;5.78;;;20.90;46.60;;;;;;4964379;28;20051;-65
2022/11/19 08:26:45;;;;;;;7.57;5.57;;;21.00;46.60;;;;;;4980657;28;20564;-65
2022/11/19 08:29:14;;;;;;;7.90;5.50;;;21.00;46.50;;;;;;4980812;28;20046;-65
2022/11/19 08:31:44;;;;;;;6.95;5.60;;;21.00;46.50;;;;;;4980489;28;20053;-65
2022/11/19 08:34:11;;;;;;;6.32;5.10;;;21.00;46.30;;;;;;4963542;28;20047;-65
2022/11/19 08:36:38;;;;;;;6.70;5.38;;;21.00;46.30;;;;;;4980818;28;20055;-65
2022/11/19 08:39:05;;;;;;;8.90;5.82;;;21.10;46.30;;;;;;4980767;28;20055;-65
2022/11/19 08:44:19;;;;;;;7.07;5.50;;;21.10;46.20;;;;;;4966469;28;20059;-65
2022/11/19 08:46:47;;;;;;;6.72;5.25;;;21.10;46.10;;;;;;4963534;28;20129;-65
2022/11/19 08:49:14;;;;;;;8.00;5.72;;;21.10;46.10;;;;;;4980625;28;20051;-64
2022/11/19 08:51:41;;;;;;;8.15;5.57;;;21.10;46.00;;;;;;4963069;28;20055;-65
2022/11/19 08:54:09;;;;;;;7.72;6.00;;;21.10;46.00;;;;;;4980674;28;20077;-65
2022/11/19 08:56:36;;;;;;;7.13;4.93;;;21.10;45.90;;;;;;4979797;28;20055;-65
2022/11/19 08:59:03;;;;;;;6.32;5.00;;;21.10;45.90;;;;;;4980664;28;20408;-65
2022/11/19 09:01:30;;;;;;;8.05;5.50;;;21.10;45.90;;;;;;4980087;28;20061;-65
2022/11/19 09:03:57;;;;;;;7.68;5.38;;;21.10;45.90;;;;;;4980027;28;20051;-65
2022/11/19 09:06:24;;;;;;;5.95;4.57;;;21.10;45.90;;;;;;4979841;28;20046;-65
2022/11/19 09:08:51;;;;;;;5.80;5.20;;;21.10;45.90;;;;;;4979951;28;20061;-65
2022/11/19 09:11:20;;;;;;;6.97;5.53;;;21.10;45.90;;;;;;4980123;28;20063;-65
2022/11/19 09:13:47;;;;;;;7.13;5.50;;;21.10;45.80;;;;;;4947147;28;20062;-65
2022/11/19 09:16:15;;;;;;;6.38;5.20;;;21.20;45.70;;;;;;4980365;28;20397;-65
2022/11/19 09:18:42;;;;;;;7.03;5.40;;;21.20;45.70;;;;;;4979797;28;20058;-65
2022/11/19 09:21:10;;;;;;;7.15;5.57;;;21.20;45.60;;;;;;4978530;28;20057;-65
2022/11/19 09:23:38;;;;;;;5.45;4.63;;;21.20;45.60;;;;;;4979714;28;20058;-65
2022/11/19 09:26:09;;;;;;;5.97;4.68;;;21.20;45.60;;;;;;4979421;28;20050;-65
2022/11/19 09:28:37;;;;;;;5.72;5.00;;;21.20;45.50;;;;;;4979709;28;20477;-65
2022/11/19 09:31:08;;;;;;;6.05;5.15;;;21.20;45.50;;;;;;4962604;28;20078;-64
2022/11/19 09:33:37;;;;;;;7.15;5.00;;;21.20;45.40;;;;;;4962329;28;20443;-64
2022/11/19 09:36:05;;;;;;;7.03;5.40;;;21.20;45.40;;;;;;4963476;28;20069;-64
2022/11/19 09:38:36;;;;;;;7.07;5.13;;;21.20;45.40;;;;;;4963191;28;20060;-61
2022/11/19 09:41:31;;;;;;;6.28;4.22;;;21.20;45.90;;;;;;4979361;28;20051;-65
2022/11/19 09:44:27;;;;;;;6.35;4.55;;;21.20;45.40;;;;;;4979189;28;20046;-65
2022/11/19 09:47:30;;;;;;;6.13;4.78;;;21.20;45.20;;;;;;4966451;28;20051;-65
2022/11/19 09:50:10;;;;;;;7.10;5.53;;;21.20;45.20;;;;;;4967347;28;20050;-64
2022/11/19 09:52:47;;;;;;;7.60;5.53;;;21.30;45.10;;;;;;4979463;28;20050;-65
2022/11/19 09:55:19;;;;;;;6.00;5.15;;;21.30;45.10;;;;;;4962036;28;20061;-64
2022/11/19 09:57:54;;;;;;;7.65;5.18;;;21.30;45.10;;;;;;4979091;28;20055;-65
2022/11/19 10:00:24;;;;;;;6.95;4.82;;;21.30;45.00;;;;;;4979093;28;20051;-64
2022/11/19 10:02:52;;;;;;;7.88;5.25;;;21.30;44.90;;;;;;4978928;28;20568;-65
2022/11/19 10:05:49;;;;;;;6.88;5.30;;;21.30;44.90;;;;;;4979251;28;20061;-65
2022/11/19 10:08:44;;;;;;;6.88;5.25;;;21.30;44.80;;;;;;4978715;28;20051;-64
2022/11/19 10:11:28;;;;;;;8.80;5.18;;;21.40;44.80;;;;;;4979408;28;20046;-65
2022/11/19 10:14:35;;;;;;;7.18;5.25;;;21.40;44.70;;;;;;4962646;28;20054;-65
2022/11/19 10:17:30;;;;;;;5.22;4.65;;;21.40;44.60;;;;;;4967203;28;20047;-65
2022/11/19 10:20:32;;;;;;;5.63;4.70;;;21.50;44.50;;;;;;4965845;28;20062;-64
2022/11/19 10:23:15;;;;;;;6.18;4.45;;;21.50;44.50;;;;;;4978726;28;20055;-66
2022/11/19 10:25:46;;;;;;;5.18;4.55;;;21.50;44.50;;;;;;4961695;28;20055;-65
2022/11/19 10:28:14;;;;;;;;;;;21.50;44.40;;;;;;4961900;28;20055;-65
2022/11/19 10:30:48;;;;;;;6.05;5.28;;;21.50;44.40;;;;;;4978756;28;19929;-66
2022/11/19 10:33:28;;;;;;;5.75;4.57;;;21.50;44.40;;;;;;4978370;28;20106;-65
2022/11/19 10:36:00;;;;;;;7.22;5.03;;;21.50;44.40;;;;;;4978575;28;20057;-65
2022/11/19 10:38:36;;;;;;;6.40;5.10;;;21.50;44.30;;;;;;4979450;28;20047;-65
2022/11/19 10:41:11;;;;;;;5.82;4.95;;;21.50;44.30;;;;;;4978542;28;20457;-65
2022/11/19 10:43:47;;;;;;;8.07;5.13;;;21.60;44.20;;;;;;4978118;28;20481;-65
2022/11/19 10:46:20;;;;;;;6.22;5.10;;;21.60;44.10;;;;;;4977926;28;20046;-65
2022/11/19 10:48:52;;;;;;;6.80;5.22;;;21.60;43.90;;;;;;4978324;28;20489;-65
2022/11/19 10:51:40;;;;;;;7.60;5.30;;;21.70;43.90;;;;;;4976592;28;20058;-64
2022/11/19 10:54:21;;;;;;;7.18;5.50;;;21.70;43.90;;;;;;4978447;28;20062;-65
2022/11/19 10:56:50;;;;;;;6.38;5.20;;;21.70;43.70;;;;;;4978660;28;20051;-65
2022/11/19 10:59:20;;;;;;;6.97;5.30;;;21.70;43.60;;;;;;4977923;28;20050;-65
2022/11/19 11:01:52;;;;;;;6.03;4.60;;;21.70;43.60;;;;;;4978143;28;20485;-64
2022/11/19 11:04:25;;;;;;;5.50;4.45;;;21.70;43.50;;;;;;4961541;28;20054;-65
2022/11/19 11:07:00;;;;;;;6.85;4.70;;;21.70;43.50;;;;;;4961288;28;20077;-65
2022/11/19 11:09:33;;;;;;;6.28;5.05;;;21.70;43.60;;;;;;4978706;28;20055;-64
2022/11/19 11:15:26;;;;;;;6.25;5.20;;;21.70;43.70;;;;;;4963705;28;20493;-65
2022/11/19 11:18:05;;;;;;;5.85;4.53;;;21.60;43.70;;;;;;4978241;28;20076;-64
2022/11/19 11:20:35;;;;;;;6.75;5.20;;;21.60;43.70;;;;;;4977723;28;20076;-65
2022/11/19 11:23:16;;;;;;;6.47;5.03;;;21.60;43.70;;;;;;4978477;28;20050;-65
2022/11/19 11:26:07;;;;;;;7.78;5.13;;;21.60;43.70;;;;;;4977779;28;20133;-65
2022/11/19 11:28:34;;;;;;;7.38;5.03;;;21.60;43.60;;;;;;4977799;28;20516;-65
2022/11/19 11:31:05;;;;;;;6.15;5.03;;;21.60;43.60;;;;;;4977885;28;20055;-65
2022/11/19 11:33:38;;;;;;;7.10;5.20;;;21.60;43.60;;;;;;4977775;28;20055;-65
2022/11/19 11:36:13;;;;;;;7.40;5.35;;;21.60;43.60;;;;;;4977595;28;20051;-65
2022/11/19 11:38:43;;;;;;;6.90;5.55;;;21.60;43.60;;;;;;4977673;28;20062;-65
2022/11/19 11:41:16;;;;;;;6.95;5.28;;;21.60;43.60;;;;;;4960550;28;20051;-64
2022/11/19 11:44:14;;;;;;;5.97;5.07;;;21.60;43.50;;;;;;4978199;28;20047;-64
2022/11/19 11:46:48;;;;;;;6.50;4.85;;;21.60;43.50;;;;;;4981360;28;20047;-65
2022/11/19 11:49:36;;;;;;;7.97;5.75;;;21.60;43.50;;;;;;4981008;28;20055;-64
2022/11/19 11:52:34;;;;;;;7.30;5.53;;;21.60;43.40;;;;;;4980719;28;20058;-65
2022/11/19 11:55:14;;;;;;;6.32;5.03;;;21.60;43.40;;;;;;4981887;28;20054;-64
2022/11/19 11:57:55;;;;;;;6.72;4.70;;;21.60;43.40;;;;;;4980734;28;20389;-64
2022/11/19 12:00:41;;;;;;;5.25;4.53;;;21.60;43.40;;;;;;4980903;28;20057;-64
2022/11/19 12:03:12;;;;;;;6.25;5.03;;;21.60;43.30;;;;;;4981063;28;20059;-65
2022/11/19 12:06:02;;;;;;;8.10;5.82;;;21.60;43.30;;;;;;4981171;28;20465;-65
2022/11/19 12:08:50;;;;;;;7.85;5.13;;;21.60;43.30;;;;;;4965960;28;20055;-65
2022/11/19 12:11:57;;;;;;;7.60;5.60;;;21.60;43.20;;;;;;4980644;28;20519;-64
2022/11/19 12:14:43;;;;;;;5.93;4.70;;;21.60;43.20;;;;;;4981197;28;20047;-65
2022/11/19 12:17:48;;;;;;;6.38;5.50;;;21.60;43.30;;;;;;4981189;28;20046;-64
2022/11/19 12:20:31;;;;;;;7.45;5.72;;;21.60;43.20;;;;;;4963550;28;20051;-65
2022/11/19 12:23:24;;;;;;;8.15;5.78;;;21.60;43.30;;;;;;4965616;28;20051;-65
2022/11/19 12:26:13;;;;;;;6.65;4.72;;;21.50;43.20;;;;;;4980210;28;20061;-65
2022/11/19 12:29:20;;;;;;;4.88;4.18;;;21.50;43.20;;;;;;4980970;28;20061;-65
2022/11/19 12:32:19;;;;;;;7.75;4.97;;;21.50;43.30;;;;;;4980837;28;20566;-64
2022/11/19 12:35:15;;;;;;;6.10;4.72;;;21.50;43.30;;;;;;4981502;28;20077;-65
2022/11/19 12:38:14;;;;;;;6.18;4.88;;;21.50;43.30;;;;;;4980999;28;20050;-65
2022/11/19 12:41:07;;;;;;;7.07;5.10;;;21.50;43.30;;;;;;4950254;28;20577;-64
2022/11/19 12:43:56;;;;;;;5.97;4.65;;;21.50;43.80;;;;;;4980634;28;20053;-65
2022/11/19 12:46:58;;;;;;;7.40;5.30;;;21.50;43.30;;;;;;4980493;28;20054;-64
2022/11/19 12:50:04;;;;;;;6.43;4.72;;;21.50;43.30;;;;;;4963079;28;20047;-64
2022/11/19 12:53:00;;;;;;;5.60;4.40;;;21.50;43.30;;;;;;4968518;28;20057;-64
2022/11/19 12:56:00;;;;;;;7.10;4.90;;;21.50;43.30;;;;;;4978798;28;20061;-65
2022/11/19 12:59:05;;;;;;;6.95;4.95;;;21.40;43.30;;;;;;4980324;28;20081;-65
2022/11/19 13:01:39;;;;;;;6.68;5.03;;;21.40;43.30;;;;;;4980108;28;20062;-65
2022/11/19 13:04:21;;;;;;;5.63;4.75;;;21.40;43.30;;;;;;4980233;28;20457;-64
2022/11/19 13:07:05;;;;;;;5.85;4.43;;;21.40;43.20;;;;;;4962996;28;20058;-64
2022/11/19 13:09:55;;;;;;;5.88;4.72;;;21.40;43.20;;;;;;4979870;28;20098;-61
2022/11/19 13:12:32;;;;;;;6.43;4.28;;;21.40;43.20;;;;;;4979834;28;20053;-64
2022/11/19 13:15:13;;;;;;;6.57;4.70;;;21.40;43.20;;;;;;4979832;28;20409;-64
2022/11/19 13:17:48;;;;;;;6.05;4.25;;;21.40;43.10;;;;;;4979943;28;20113;-64
2022/11/19 13:20:50;;;;;;;6.25;4.40;;;21.40;43.10;;;;;;4976907;28;20047;-64
2022/11/19 13:23:26;;;;;;;7.50;5.05;;;21.40;43.10;;;;;;4967789;28;20057;-64
2022/11/19 13:26:08;;;;;;;5.80;4.95;;;21.40;43.10;;;;;;4979629;28;20098;-64
2022/11/19 13:28:45;;;;;;;6.35;4.50;;;21.30;43.00;;;;;;4979893;28;20061;-64
2022/11/19 13:31:26;;;;;;;5.90;4.78;;;21.30;43.00;;;;;;4979838;28;20051;-64
2022/11/19 13:34:00;;;;;;;7.47;5.25;;;21.30;43.00;;;;;;4962418;28;20054;-64
2022/11/19 13:36:36;;;;;;;7.50;5.40;;;21.30;43.00;;;;;;4979757;28;20049;-64
2022/11/19 13:39:36;;;;;;;7.38;4.45;;;21.30;43.00;;;;;;4979269;28;20057;-64
2022/11/19 13:44:53;;;;;;;5.53;4.70;;;21.30;43.00;;;;;;4979462;28;20054;-64
2022/11/19 13:47:36;;;;;;;7.47;4.90;;;21.30;43.00;;;;;;4979162;28;20078;-64
2022/11/19 13:50:13;;;;;;;6.20;4.35;;;21.30;43.00;;;;;;4979160;28;20046;-64